createdAt,value
2019-02-06T00:01:02.818Z,101580.00
2019-02-06T00:03:43.972Z,101461.00
2019-02-06T00:06:25.847Z,101416.00
2019-02-06T00:09:13.962Z,101653.00
2019-02-06T00:11:54.575Z,101654.00
2019-02-06T00:14:41.964Z,101655.00
2019-02-06T00:17:29.387Z,101645.00
2019-02-06T00:20:16.738Z,101649.00
2019-02-06T00:22:58.433Z,101346.00
2019-02-06T00:25:45.875Z,101649.00
2019-02-06T00:28:14.157Z,101644.00
2019-02-06T00:30:42.263Z,101654.00
2019-02-06T00:33:23.103Z,101420.00
2019-02-06T00:35:51.100Z,101652.00
2019-02-06T00:38:19.026Z,101655.00
2019-02-06T00:40:47.008Z,101601.00
2019-02-06T00:43:14.969Z,101658.00
2019-02-06T00:45:56.854Z,101659.00
2019-02-06T00:48:44.541Z,101627.00
2019-02-06T00:51:35.520Z,101465.00
2019-02-06T00:54:04.181Z,101643.00
2019-02-06T00:56:32.846Z,101638.00
2019-02-06T00:59:20.251Z,101416.00
2019-02-06T01:02:12.281Z,101451.00
2019-02-06T01:04:59.687Z,101658.00
2019-02-06T01:07:40.635Z,101498.00
2019-02-06T01:10:28.023Z,101647.00
2019-02-06T01:13:08.688Z,101513.00
2019-02-06T01:15:56.538Z,101651.00
2019-02-06T01:18:36.743Z,101653.00
2019-02-06T01:21:24.124Z,101331.00
2019-02-06T01:24:05.115Z,101476.00
2019-02-06T01:26:52.678Z,101705.00
2019-02-06T01:29:33.663Z,101444.00
2019-02-06T01:32:21.419Z,101665.00
2019-02-06T01:35:02.297Z,101662.00
2019-02-06T01:37:30.588Z,101667.00
2019-02-06T01:40:18.086Z,101668.00
2019-02-06T01:42:58.790Z,101550.00
2019-02-06T01:45:46.206Z,101406.00
2019-02-06T01:48:27.377Z,101669.00
2019-02-06T01:50:57.410Z,101664.00
2019-02-06T01:53:25.404Z,101666.00
2019-02-06T01:55:53.731Z,101661.00
2019-02-06T01:58:22.889Z,101665.00
2019-02-06T02:01:05.128Z,101326.00
2019-02-06T02:03:52.687Z,101658.00
2019-02-06T02:06:47.602Z,101392.00
2019-02-06T02:09:28.109Z,101650.00
2019-02-06T02:12:08.445Z,101643.00
2019-02-06T02:14:56.009Z,101391.00
2019-02-06T02:17:36.777Z,101645.00
2019-02-06T02:20:08.853Z,101646.00
2019-02-06T02:22:36.864Z,101641.00
2019-02-06T02:25:05.571Z,101641.00
2019-02-06T02:27:33.556Z,101637.00
2019-02-06T02:30:01.455Z,101632.00
2019-02-06T02:32:31.396Z,101627.00
2019-02-06T02:34:59.347Z,101628.00
2019-02-06T02:37:27.467Z,101624.00
2019-02-06T02:39:56.452Z,101621.00
2019-02-06T02:42:37.487Z,101392.00
2019-02-06T02:45:25.094Z,101625.00
2019-02-06T02:47:52.976Z,101624.00
2019-02-06T02:50:40.709Z,101482.00
2019-02-06T02:53:21.240Z,101340.00
2019-02-06T02:55:49.442Z,101498.00
2019-02-06T02:58:17.512Z,101615.00
2019-02-06T03:01:05.046Z,101616.00
2019-02-06T03:03:52.495Z,101617.00
2019-02-06T03:06:40.039Z,101486.00
2019-02-06T03:09:20.843Z,101602.00
2019-02-06T03:12:08.252Z,101602.00
2019-02-06T03:14:50.648Z,101263.00
2019-02-06T03:17:32.128Z,101729.00
2019-02-06T03:20:19.898Z,101277.00
2019-02-06T03:23:00.568Z,101594.00
2019-02-06T03:25:48.129Z,101389.00
2019-02-06T03:28:29.019Z,101588.00
2019-02-06T03:31:16.410Z,101361.00
2019-02-06T03:34:18.327Z,101395.00
2019-02-06T03:37:05.971Z,101585.00
2019-02-06T03:39:34.036Z,101587.00
2019-02-06T03:42:01.963Z,101583.00
2019-02-06T03:44:42.674Z,101702.00
2019-02-06T03:47:30.039Z,101574.00
2019-02-06T03:50:11.880Z,101572.00
2019-02-06T03:52:59.259Z,101579.00
2019-02-06T03:55:39.522Z,101577.00
2019-02-06T03:58:27.123Z,101468.00
2019-02-06T04:01:11.263Z,101601.00
2019-02-06T04:03:38.089Z,101572.00
2019-02-06T04:06:22.174Z,101581.00
2019-02-06T04:08:50.117Z,101577.00
2019-02-06T04:11:30.948Z,101586.00
2019-02-06T04:14:11.027Z,101672.00
2019-02-06T04:16:38.914Z,101581.00
2019-02-06T04:19:06.802Z,101568.00
2019-02-06T04:21:34.773Z,101569.00
2019-02-06T04:24:02.808Z,101574.00
2019-02-06T04:26:30.703Z,101578.00
2019-02-06T04:28:58.965Z,101559.00
2019-02-06T04:31:26.852Z,101571.00
2019-02-06T04:34:14.236Z,101594.00
2019-02-06T04:36:42.195Z,101566.00
2019-02-06T04:39:10.142Z,101571.00
2019-02-06T04:42:02.455Z,101447.00
2019-02-06T04:44:50.115Z,101568.00
2019-02-06T04:47:30.941Z,101301.00
2019-02-06T04:50:18.553Z,101620.00
2019-02-06T04:52:59.171Z,101561.00
2019-02-06T04:55:27.293Z,101563.00
2019-02-06T04:57:55.197Z,101570.00
2019-02-06T05:00:24.282Z,101565.00
2019-02-06T05:03:09.457Z,101574.00
2019-02-06T05:05:57.064Z,101219.00
2019-02-06T05:08:37.998Z,101490.00
2019-02-06T05:11:18.329Z,101572.00
2019-02-06T05:14:06.629Z,101338.00
2019-02-06T05:16:47.583Z,101314.00
2019-02-06T05:19:35.283Z,101579.00
2019-02-06T05:22:03.281Z,101503.00
2019-02-06T05:24:31.186Z,101572.00
2019-02-06T05:26:59.061Z,101571.00
2019-02-06T05:29:27.151Z,101573.00
2019-02-06T05:31:55.278Z,101566.00
2019-02-06T05:34:23.147Z,101573.00
2019-02-06T05:36:51.204Z,101574.00
2019-02-06T05:39:38.615Z,101565.00
2019-02-06T05:42:19.366Z,101325.00
2019-02-06T05:45:07.159Z,101573.00
2019-02-06T05:47:35.140Z,101576.00
2019-02-06T05:50:22.484Z,101563.00
2019-02-06T05:52:50.444Z,101564.00
2019-02-06T05:55:18.631Z,101560.00
2019-02-06T05:57:47.387Z,101547.00
2019-02-06T06:03:48.141Z,101543.00
2019-02-06T06:06:28.514Z,101198.00
2019-02-06T06:09:16.768Z,101385.00
2019-02-06T06:11:58.412Z,101550.00
2019-02-06T06:14:26.382Z,101563.00
2019-02-06T06:17:06.751Z,101387.00
2019-02-06T06:19:54.402Z,101571.00
2019-02-06T06:22:35.182Z,101321.00
2019-02-06T06:28:24.698Z,101388.00
2019-02-06T06:31:05.187Z,101563.00
2019-02-06T06:33:53.124Z,101561.00
2019-02-06T06:36:33.847Z,101562.00
2019-02-06T06:39:13.793Z,101380.00
2019-02-06T06:41:55.087Z,101286.00
2019-02-06T06:44:42.470Z,101560.00
2019-02-06T06:47:22.984Z,101316.00
2019-02-06T06:50:12.857Z,101548.00
2019-02-06T06:53:00.248Z,101549.00
2019-02-06T06:55:40.521Z,101507.00
2019-02-06T06:58:28.199Z,101267.00
2019-02-06T07:01:10.776Z,101569.00
2019-02-06T07:03:58.032Z,101367.00
2019-02-06T07:06:38.964Z,101564.00
2019-02-06T07:09:26.478Z,101467.00
2019-02-06T07:12:06.926Z,101568.00
2019-02-06T07:14:35.099Z,101566.00
2019-02-06T07:17:03.315Z,101565.00
2019-02-06T07:19:51.253Z,101642.00
2019-02-06T07:22:19.224Z,101575.00
2019-02-06T07:25:07.052Z,101579.00
2019-02-06T07:27:49.870Z,101328.00
2019-02-06T07:30:37.284Z,101588.00
2019-02-06T07:33:20.517Z,101543.00
2019-02-06T07:36:07.910Z,101207.00
2019-02-06T07:38:48.804Z,101326.00
2019-02-06T07:41:36.364Z,101594.00
2019-02-06T07:44:19.122Z,101339.00
2019-02-06T07:47:06.799Z,101377.00
2019-02-06T07:49:48.944Z,101589.00
2019-02-06T07:52:36.472Z,101282.00
2019-02-06T07:55:04.738Z,101591.00
2019-02-06T07:57:32.904Z,101601.00
2019-02-06T08:00:00.836Z,101587.00
2019-02-06T08:02:28.741Z,101587.00
2019-02-06T08:04:57.255Z,101586.00
2019-02-06T08:07:25.481Z,101589.00
2019-02-06T08:09:53.409Z,101588.00
2019-02-06T08:12:22.226Z,101579.00
2019-02-06T08:14:50.726Z,101586.00
2019-02-06T08:17:33.321Z,101593.00
2019-02-06T08:20:21.141Z,101603.00
2019-02-06T08:23:01.813Z,101289.00
2019-02-06T08:25:43.526Z,101587.00
2019-02-06T08:28:23.992Z,101372.00
2019-02-06T08:30:51.957Z,101595.00
2019-02-06T08:33:19.952Z,101603.00
2019-02-06T08:35:48.048Z,101620.00
2019-02-06T08:38:29.271Z,101607.00
2019-02-06T08:41:17.478Z,101396.00
2019-02-06T08:43:57.872Z,101606.00
2019-02-06T08:46:45.302Z,101609.00
2019-02-06T08:49:13.510Z,101604.00
2019-02-06T08:51:53.824Z,101631.00
2019-02-06T08:54:21.830Z,101597.00
2019-02-06T08:56:49.816Z,101606.00
2019-02-06T08:59:17.853Z,101603.00
2019-02-06T09:01:45.938Z,101612.00
2019-02-06T09:04:13.866Z,101617.00
2019-02-06T09:06:56.052Z,101485.00
2019-02-06T09:09:24.199Z,101607.00
2019-02-06T09:11:52.034Z,101608.00
2019-02-06T09:14:19.958Z,101624.00
2019-02-06T09:16:47.949Z,101614.00
2019-02-06T09:19:33.163Z,101613.00
2019-02-06T09:22:20.784Z,101448.00
2019-02-06T09:25:02.782Z,101410.00
2019-02-06T09:27:50.701Z,101599.00
2019-02-06T09:30:24.263Z,101609.00
2019-02-06T09:32:52.276Z,101603.00
2019-02-06T09:35:20.480Z,101606.00
2019-02-06T09:38:07.924Z,101362.00
2019-02-06T09:40:35.861Z,101604.00
2019-02-06T09:43:04.847Z,101597.00
2019-02-06T09:45:32.786Z,101592.00
2019-02-06T09:48:13.312Z,101725.00
2019-02-06T09:51:00.765Z,101595.00
2019-02-06T09:53:41.388Z,101594.00
2019-02-06T09:56:22.496Z,101296.00
2019-02-06T09:59:02.833Z,101580.00
2019-02-06T10:01:50.219Z,101489.00
2019-02-06T10:04:30.707Z,101670.00
2019-02-06T10:07:18.340Z,101207.00
2019-02-06T10:09:58.968Z,101462.00
2019-02-06T10:12:46.841Z,101311.00
2019-02-06T10:15:29.314Z,101457.00
2019-02-06T10:18:16.698Z,101512.00
2019-02-06T10:20:57.147Z,101568.00
2019-02-06T10:23:44.641Z,101563.00
2019-02-06T10:26:25.001Z,101609.00
2019-02-06T10:29:12.473Z,101372.00
2019-02-06T10:31:53.291Z,101561.00
2019-02-06T10:34:21.317Z,101559.00
2019-02-06T10:37:01.560Z,101554.00
2019-02-06T10:39:48.993Z,101561.00
2019-02-06T10:42:16.903Z,101545.00
2019-02-06T10:45:04.895Z,101319.00
2019-02-06T10:47:32.840Z,101537.00
2019-02-06T10:50:22.061Z,101528.00
2019-02-06T10:53:04.030Z,101271.00
2019-02-06T10:55:52.026Z,101279.00
2019-02-06T10:58:20.244Z,101530.00
2019-02-06T11:00:58.237Z,101514.00
2019-02-06T11:03:40.768Z,101512.00
2019-02-06T11:06:08.813Z,101505.00
2019-02-06T11:09:10.846Z,101244.00
2019-02-06T11:15:04.377Z,101376.00
2019-02-06T11:17:46.720Z,101153.00
2019-02-06T11:20:34.725Z,101243.00
2019-02-06T11:23:15.886Z,101469.00
2019-02-06T11:26:06.003Z,101475.00
2019-02-06T11:28:46.770Z,101465.00
2019-02-06T11:31:34.248Z,101460.00
2019-02-06T11:34:15.139Z,101461.00
2019-02-06T11:37:02.767Z,101445.00
2019-02-06T11:39:57.568Z,101460.00
2019-02-06T11:42:36.923Z,101277.00
2019-02-06T11:45:05.965Z,101441.00
2019-02-06T11:47:34.294Z,101436.00
2019-02-06T11:50:16.841Z,101431.00
2019-02-06T11:52:46.290Z,101428.00
2019-02-06T11:55:18.280Z,101426.00
2019-02-06T11:58:08.953Z,101428.00
2019-02-06T12:00:59.440Z,101423.00
2019-02-06T12:03:27.411Z,101428.00
2019-02-06T12:06:10.096Z,101179.00
2019-02-06T12:08:57.956Z,101232.00
2019-02-06T12:11:38.579Z,101418.00
2019-02-06T12:14:26.285Z,101208.00
2019-02-06T12:17:13.171Z,101409.00
2019-02-06T12:19:41.506Z,101389.00
2019-02-06T12:22:29.025Z,101394.00
2019-02-06T12:25:09.795Z,101104.00
2019-02-06T12:27:58.340Z,101143.00
2019-02-06T12:30:31.114Z,101358.00
2019-02-06T12:32:59.180Z,101351.00
2019-02-06T12:35:27.207Z,101355.00
2019-02-06T12:38:14.682Z,101088.00
2019-02-06T12:40:42.683Z,101338.00
2019-02-06T12:43:30.670Z,101378.00
2019-02-06T12:45:59.036Z,101337.00
2019-02-06T12:48:46.687Z,101331.00
2019-02-06T12:51:27.969Z,101092.00
2019-02-06T12:54:15.938Z,101319.00
2019-02-06T12:56:57.054Z,101023.00
2019-02-06T12:59:25.229Z,101314.00
2019-02-06T13:02:06.159Z,101321.00
2019-02-06T13:04:34.135Z,101319.00
2019-02-06T13:07:02.116Z,101309.00
2019-02-06T13:09:30.182Z,101309.00
2019-02-06T13:12:13.297Z,101375.00
2019-02-06T13:18:11.203Z,101296.00
2019-02-06T13:20:59.229Z,101301.00
2019-02-06T13:23:27.286Z,101299.00
2019-02-06T13:26:03.951Z,101304.00
2019-02-06T14:04:43.379Z,101241.00
2019-02-06T14:07:20.796Z,101234.00
2019-02-06T14:10:21.609Z,101237.00
2019-02-06T14:13:18.135Z,101231.00
2019-02-06T14:15:50.505Z,101221.00
2019-02-06T14:18:26.507Z,101218.00
2019-02-06T14:21:08.310Z,101221.00
2019-02-06T14:24:53.733Z,101216.00
2019-02-06T14:28:17.023Z,101224.00
2019-02-06T14:31:44.147Z,101217.00
2019-02-06T14:35:15.061Z,101220.00
2019-02-06T14:38:47.921Z,101213.00
2019-02-06T14:41:51.975Z,101199.00
2019-02-06T14:45:21.058Z,101204.00
2019-02-06T14:49:15.332Z,101198.00
2019-02-06T14:52:47.113Z,101194.00
2019-02-06T14:56:14.243Z,101193.00
2019-02-06T14:59:15.997Z,101184.00
2019-02-06T15:02:26.239Z,101193.00
2019-02-06T15:05:57.756Z,101186.00
2019-02-06T15:09:39.946Z,101174.00
2019-02-06T15:13:02.988Z,101167.00
2019-02-06T15:21:21.235Z,101166.00
2019-02-06T15:28:41.585Z,101162.00
2019-02-06T15:28:56.887Z,101160.00
2019-02-06T15:32:22.826Z,101161.00
2019-02-06T15:35:34.500Z,101158.00
2019-02-06T15:39:04.544Z,101150.00
2019-02-06T15:42:35.094Z,101151.00
2019-02-06T15:45:49.375Z,101137.00
2019-02-06T15:49:19.272Z,101147.00
2019-02-06T15:52:23.146Z,101141.00
2019-02-06T15:56:04.040Z,101143.00
2019-02-06T16:00:09.494Z,101152.00
2019-02-06T16:03:27.911Z,101152.00
2019-02-06T16:06:36.400Z,101151.00
2019-02-06T16:09:55.158Z,101149.00
2019-02-06T16:13:14.503Z,101152.00
2019-02-06T16:16:26.813Z,101138.00
2019-02-06T16:19:31.538Z,101142.00
2019-02-06T16:23:01.253Z,101143.00
2019-02-06T16:25:51.522Z,101127.00
2019-02-06T16:29:11.599Z,101129.00
2019-02-06T16:32:58.447Z,101131.00
2019-02-06T16:36:58.324Z,101118.00
2019-02-06T16:40:19.808Z,101129.00
2019-02-06T16:48:33.517Z,101135.00
2019-02-06T16:52:27.364Z,101133.00
2019-02-06T16:55:49.107Z,101139.00
2019-02-06T16:59:28.611Z,101130.00
2019-02-06T17:03:07.459Z,101130.00
2019-02-06T17:06:22.770Z,101149.00
2019-02-06T17:09:47.020Z,101144.00
2019-02-06T17:13:05.679Z,101133.00
2019-02-06T17:16:32.513Z,101130.00
2019-02-06T17:20:19.172Z,101131.00
2019-02-06T17:23:45.021Z,101124.00
2019-02-06T17:27:09.680Z,101128.00
2019-02-06T17:30:22.865Z,101124.00
2019-02-06T17:33:49.015Z,101130.00
2019-02-06T17:37:13.051Z,101127.00
2019-02-06T17:40:45.740Z,101129.00
2019-02-06T17:44:09.216Z,101124.00
2019-02-06T17:46:54.443Z,101114.00
2019-02-06T17:50:38.546Z,101109.00
2019-02-06T17:54:17.650Z,101110.00
2019-02-06T17:56:45.780Z,101107.00
2019-02-06T17:59:13.857Z,101113.00
2019-02-06T18:01:52.421Z,101121.00
2019-02-06T18:04:37.994Z,101119.00
2019-02-06T18:07:06.508Z,101116.00
2019-02-06T18:09:34.743Z,101107.00
2019-02-06T18:12:03.139Z,101103.00
2019-02-06T18:14:31.259Z,101095.00
2019-02-06T18:17:03.124Z,101088.00
2019-02-06T18:19:37.942Z,101088.00
2019-02-06T18:22:07.207Z,101081.00
2019-02-06T18:24:35.316Z,101077.00
2019-02-06T18:27:05.133Z,101084.00
2019-02-06T18:29:33.289Z,101084.00
2019-02-06T18:32:01.400Z,101091.00
2019-02-06T18:34:29.728Z,101085.00
2019-02-06T18:36:57.941Z,101078.00
2019-02-06T18:39:26.086Z,101087.00
2019-02-06T18:41:55.514Z,101099.00
2019-02-06T18:44:25.259Z,101095.00
2019-02-06T18:46:54.745Z,101087.00
2019-02-06T18:49:22.890Z,101096.00
2019-02-06T18:51:50.956Z,101085.00
2019-02-06T18:54:21.072Z,101079.00
2019-02-06T18:56:49.156Z,101071.00
2019-02-06T18:59:17.690Z,101072.00
2019-02-06T19:01:46.320Z,101071.00
2019-02-06T19:04:17.773Z,101065.00
2019-02-06T19:06:46.010Z,101069.00
2019-02-06T19:09:16.104Z,101069.00
2019-02-06T19:11:44.741Z,100992.00
2019-02-06T19:14:13.003Z,101058.00
2019-02-06T19:16:41.432Z,101071.00
2019-02-06T19:19:09.818Z,101058.00
2019-02-06T19:21:37.985Z,101051.00
2019-02-06T19:24:06.620Z,101051.00
2019-02-06T19:26:34.995Z,101027.00
2019-02-06T19:29:03.691Z,101020.00
2019-02-06T19:31:31.965Z,101009.00
2019-02-06T19:34:00.536Z,101013.00
2019-02-06T19:36:28.724Z,101007.00
2019-02-06T19:38:57.029Z,101012.00
2019-02-06T19:41:25.441Z,101011.00
2019-02-06T19:43:53.646Z,101006.00
2019-02-06T19:46:21.928Z,101000.00
2019-02-06T19:48:50.020Z,101004.00
2019-02-06T19:51:18.502Z,101003.00
2019-02-06T19:53:47.019Z,101010.00
2019-02-06T19:56:15.186Z,101012.00
2019-02-06T19:58:43.311Z,101009.00
2019-02-06T20:01:12.446Z,101004.00
2019-02-06T20:03:40.509Z,101013.00
2019-02-06T20:06:27.394Z,101021.00
2019-02-06T20:08:58.851Z,101017.00
2019-02-06T20:11:27.242Z,101014.00
2019-02-06T20:13:55.831Z,101012.00
2019-02-06T20:16:24.263Z,101005.00
2019-02-06T20:18:53.371Z,101002.00
2019-02-06T20:21:21.560Z,101001.00
2019-02-06T20:23:49.751Z,100995.00
2019-02-06T20:26:18.451Z,100986.00
2019-02-06T20:28:46.603Z,100988.00
2019-02-06T20:31:14.806Z,100993.00
2019-02-06T20:33:43.167Z,100981.00
2019-02-06T20:36:11.349Z,100979.00
2019-02-06T20:38:39.630Z,100976.00
2019-02-06T20:41:08.274Z,100971.00
2019-02-06T20:43:36.369Z,100976.00
2019-02-06T20:46:04.707Z,100977.00
2019-02-06T20:48:33.209Z,100975.00
2019-02-06T20:51:01.522Z,100942.00
2019-02-06T20:53:29.829Z,100975.00
2019-02-06T20:55:58.231Z,100976.00
2019-02-06T20:58:26.373Z,100972.00
2019-02-06T21:00:54.802Z,100959.00
2019-02-06T21:03:23.582Z,100942.00
2019-02-06T21:05:51.777Z,100942.00
2019-02-06T21:08:19.961Z,100947.00
2019-02-06T21:10:47.964Z,100950.00
2019-02-06T21:13:18.955Z,100957.00
2019-02-06T21:15:46.587Z,100952.00
2019-02-06T21:18:14.678Z,100952.00
2019-02-06T21:20:43.083Z,100952.00
2019-02-06T21:23:13.369Z,100958.00
2019-02-06T21:25:41.563Z,100952.00
2019-02-06T21:28:11.527Z,100948.00
2019-02-06T21:30:39.674Z,100937.00
2019-02-06T21:33:08.996Z,100936.00
2019-02-06T21:35:37.466Z,100931.00
2019-02-06T21:38:05.603Z,100930.00
2019-02-06T21:40:34.618Z,100937.00
2019-02-06T21:43:03.336Z,100932.00
2019-02-06T21:45:31.425Z,100931.00
2019-02-06T21:47:59.594Z,100920.00
2019-02-06T21:50:29.060Z,100926.00
2019-02-06T21:52:57.461Z,100924.00
2019-02-06T21:55:25.635Z,100905.00
2019-02-06T21:57:53.742Z,100908.00
2019-02-06T22:00:31.209Z,100906.00
2019-02-06T22:02:59.258Z,100910.00
2019-02-06T22:05:27.423Z,100895.00
2019-02-06T22:07:55.537Z,100897.00
2019-02-06T22:10:23.623Z,100899.00
2019-02-06T22:12:51.891Z,100894.00
2019-02-06T22:15:22.853Z,100887.00
2019-02-06T22:17:51.158Z,100878.00
2019-02-06T22:20:20.590Z,100881.00
2019-02-06T22:22:48.824Z,100876.00
2019-02-06T22:25:17.288Z,100876.00
2019-02-06T22:27:45.504Z,100881.00
2019-02-06T22:30:19.747Z,100865.00
2019-02-06T22:32:47.796Z,100873.00
2019-02-06T22:35:16.070Z,100873.00
2019-02-06T22:37:44.340Z,100862.00
2019-02-06T22:40:15.683Z,100871.00
2019-02-06T22:42:43.671Z,100866.00
2019-02-06T22:45:15.719Z,100864.00
2019-02-06T22:47:43.693Z,100865.00
2019-02-06T22:50:13.324Z,100861.00
2019-02-06T22:52:41.375Z,100853.00
2019-02-06T22:55:10.561Z,100850.00
2019-02-06T22:57:38.647Z,100869.00
2019-02-06T23:00:53.514Z,100865.00
2019-02-06T23:03:31.936Z,100857.00
2019-02-06T23:05:59.998Z,100849.00
2019-02-06T23:08:28.112Z,100860.00
2019-02-06T23:10:56.488Z,100858.00
2019-02-06T23:13:24.537Z,100835.00
2019-02-06T23:15:53.359Z,100835.00
2019-02-06T23:18:21.399Z,100826.00
2019-02-06T23:20:49.745Z,100822.00
2019-02-06T23:23:17.702Z,100811.00
2019-02-06T23:25:45.736Z,100803.00
2019-02-06T23:28:13.843Z,100808.00
2019-02-06T23:30:42.112Z,100792.00
2019-02-06T23:33:10.116Z,100797.00
2019-02-06T23:35:38.202Z,100784.00
2019-02-06T23:38:06.274Z,100777.00
2019-02-06T23:40:35.361Z,100781.00
2019-02-06T23:43:04.050Z,100790.00
2019-02-06T23:45:32.061Z,100776.00
2019-02-06T23:48:00.128Z,100776.00
2019-02-06T23:50:28.152Z,100781.00
2019-02-06T23:52:56.072Z,100783.00
2019-02-06T23:55:24.116Z,100764.00
2019-02-06T23:57:51.999Z,100760.00
